Terminal Aerodrome Forecast
Issued by NWS

Home | Current Version | Previous Version | Text Only | Print | Product List | Glossary On
Versions: 1 2 3 4 5 6 7 8 9 10 11 12 13 14 15 16 17 18 19 20 21 22 23 24
000
FTUS43 KDMX 242332
TAFFOD
TAF
KFOD 242332Z 2500/2524 VRB06KT 6SM -SHRA BR FEW035 BKN080 OVC120
     FM250100 16011KT P6SM SCT060 BKN120
     FM250600 16013G19KT P6SM VCTS SCT035CB BKN060 OVC120
     FM251400 18011G17KT P6SM SCT040 BKN150=

USA.gov is the U.S. government's official web portal to all federal, state and local government web resources and services.